createdAt,value
2018-08-11T00:03:32.050Z,56.60
2018-08-11T00:13:51.024Z,56.90
2018-08-11T00:22:07.695Z,57.70
2018-08-11T00:30:33.896Z,59.10
2018-08-11T00:33:09.992Z,58.90
2018-08-11T00:35:48.955Z,59.00
2018-08-11T00:38:32.250Z,59.10
2018-08-11T00:41:11.615Z,59.40
2018-08-11T00:43:45.842Z,59.80
2018-08-11T00:46:19.776Z,60.10
2018-08-11T00:48:50.649Z,60.10
2018-08-11T00:51:23.584Z,59.50
2018-08-11T00:53:57.945Z,59.20
2018-08-11T00:56:30.231Z,59.60
2018-08-11T01:05:03.913Z,59.80
2018-08-11T01:10:29.503Z,60.00
2018-08-11T01:13:19.836Z,60.00
2018-08-11T01:18:46.291Z,60.00
2018-08-11T01:21:23.527Z,59.90
2018-08-11T01:24:08.281Z,59.70
2018-08-11T01:26:39.528Z,59.00
2018-08-11T01:29:12.557Z,59.50
2018-08-11T01:31:50.867Z,59.80
2018-08-11T01:34:24.847Z,59.80
2018-08-11T01:37:02.108Z,59.80
2018-08-11T01:39:48.870Z,59.80
2018-08-11T01:42:33.644Z,59.80
2018-08-11T01:50:58.229Z,59.60
2018-08-11T01:53:42.620Z,59.70
2018-08-11T01:56:23.522Z,58.60
2018-08-11T01:58:55.920Z,58.60
2018-08-11T02:01:34.457Z,58.40
2018-08-11T02:04:11.800Z,58.00
2018-08-11T02:06:49.328Z,57.90
2018-08-11T02:09:25.311Z,57.90
2018-08-11T02:12:04.132Z,57.90
2018-08-11T02:15:15.213Z,57.80
2018-08-11T02:18:14.556Z,57.60
2018-08-11T02:20:52.925Z,57.10
2018-08-11T02:23:37.537Z,57.00
2018-08-11T02:26:27.876Z,57.50
2018-08-11T02:29:07.469Z,57.40
2018-08-11T02:31:59.129Z,57.60
2018-08-11T02:34:44.807Z,57.40
2018-08-11T02:40:40.923Z,56.80
2018-08-11T02:46:22.882Z,56.70
2018-08-11T02:52:04.272Z,56.80
2018-08-11T02:54:37.009Z,57.20
2018-08-11T02:57:16.670Z,57.10
2018-08-11T02:59:50.955Z,56.90
2018-08-11T03:05:11.806Z,57.70
2018-08-11T03:08:20.072Z,58.10
2018-08-11T03:11:06.259Z,58.50
2018-08-11T03:13:52.794Z,59.00
2018-08-11T03:16:31.894Z,57.90
2018-08-11T03:19:07.544Z,58.30
2018-08-11T03:21:44.195Z,57.90
2018-08-11T03:27:01.500Z,57.70
2018-08-11T03:29:41.955Z,57.80
2018-08-11T03:32:26.489Z,58.10
2018-08-11T03:41:04.432Z,58.10
2018-08-11T03:43:53.617Z,58.00
2018-08-11T03:47:02.729Z,58.20
2018-08-11T03:49:53.390Z,58.10
2018-08-11T03:54:09.528Z,58.20
2018-08-11T03:56:43.214Z,57.90
2018-08-11T03:59:34.342Z,57.40
2018-08-11T04:02:16.113Z,57.90
2018-08-11T04:04:59.875Z,59.00
2018-08-11T04:07:46.681Z,58.80
2018-08-11T04:10:35.238Z,59.50
2018-08-11T04:16:29.269Z,58.90
2018-08-11T04:19:21.649Z,57.80
2018-08-11T04:21:55.209Z,57.10
2018-08-11T04:24:39.273Z,56.80
2018-08-11T04:27:15.638Z,56.20
2018-08-11T04:29:50.321Z,55.70
2018-08-11T04:32:24.425Z,54.60
2018-08-11T04:35:08.505Z,54.20
2018-08-11T04:37:52.965Z,54.80
2018-08-11T04:40:29.091Z,54.50
2018-08-11T04:43:09.980Z,55.00
2018-08-11T04:45:47.763Z,54.90
2018-08-11T04:48:27.253Z,53.70
2018-08-11T04:51:09.900Z,52.90
2018-08-11T04:53:48.221Z,52.80
2018-08-11T04:56:26.391Z,52.10
2018-08-11T04:59:00.544Z,52.30
2018-08-11T05:01:42.266Z,52.50
2018-08-11T05:04:14.631Z,53.00
2018-08-11T05:06:49.937Z,51.70
2018-08-11T05:09:23.574Z,51.60
2018-08-11T05:11:57.147Z,50.90
2018-08-11T05:14:29.570Z,51.30
2018-08-11T05:16:58.769Z,50.10
2018-08-11T05:19:30.112Z,51.50
2018-08-11T05:22:00.312Z,49.70
2018-08-11T05:24:29.339Z,49.70
2018-08-11T05:26:58.360Z,49.10
2018-08-11T05:29:32.614Z,49.20
2018-08-11T05:32:03.481Z,48.90
2018-08-11T05:34:34.328Z,48.60
2018-08-11T05:37:04.788Z,49.30
2018-08-11T05:39:34.489Z,49.30
2018-08-11T05:42:04.411Z,49.30
2018-08-11T05:44:35.521Z,49.30
2018-08-11T05:47:05.762Z,48.90
2018-08-11T05:49:34.812Z,48.10
2018-08-11T05:52:07.640Z,45.70
2018-08-11T05:54:37.023Z,45.00
2018-08-11T05:57:12.132Z,42.80
2018-08-11T05:59:41.728Z,42.20
2018-08-11T06:02:27.267Z,42.40
2018-08-11T06:05:03.765Z,42.60
2018-08-11T06:07:33.142Z,41.10
2018-08-11T06:10:08.423Z,40.30
2018-08-11T06:12:38.445Z,39.70
2018-08-11T06:15:10.402Z,39.10
2018-08-11T06:17:42.287Z,38.80
2018-08-11T06:20:11.693Z,39.20
2018-08-11T06:22:47.234Z,37.40
2018-08-11T06:25:21.243Z,36.50
2018-08-11T06:31:47.139Z,34.90
2018-08-11T06:34:18.057Z,33.80
2018-08-11T06:36:52.954Z,33.00
2018-08-11T06:39:22.807Z,32.00
2018-08-11T06:41:52.208Z,30.60
2018-08-11T06:44:30.581Z,29.70
2018-08-11T06:47:05.370Z,28.70
2018-08-11T06:49:34.991Z,27.40
2018-08-11T06:52:04.756Z,26.90
2018-08-11T06:54:41.956Z,26.20
2018-08-11T06:57:14.038Z,25.20
2018-08-11T06:59:43.885Z,24.40
2018-08-11T07:02:13.315Z,23.60
2018-08-11T07:04:42.466Z,23.40
2018-08-11T07:07:12.383Z,23.00
2018-08-11T07:09:46.015Z,23.20
2018-08-11T07:12:24.503Z,22.50
2018-08-11T07:14:55.381Z,21.60
2018-08-11T07:17:26.124Z,21.80
2018-08-11T07:20:01.628Z,21.10
2018-08-11T07:22:31.342Z,20.60
2018-08-11T07:25:00.411Z,19.90
2018-08-11T07:30:10.509Z,18.60
2018-08-11T07:32:41.238Z,18.40
2018-08-11T07:35:11.768Z,19.40
2018-08-11T07:37:43.433Z,19.10
2018-08-11T07:40:14.197Z,18.90
2018-08-11T07:42:44.555Z,18.30
2018-08-11T07:45:14.804Z,18.10
2018-08-11T07:47:44.938Z,18.10
2018-08-11T07:50:14.935Z,18.60
2018-08-11T07:52:44.361Z,19.30
2018-08-11T07:55:15.669Z,19.10
2018-08-11T07:57:50.524Z,18.70
2018-08-11T08:00:22.703Z,19.00
2018-08-11T08:02:52.196Z,18.50
2018-08-11T08:05:21.606Z,19.10
2018-08-11T08:07:52.873Z,18.40
2018-08-11T08:10:23.342Z,17.60
2018-08-11T08:12:54.036Z,17.00
2018-08-11T08:15:25.447Z,16.70
2018-08-11T08:17:57.285Z,15.70
2018-08-11T08:20:27.105Z,16.40
2018-08-11T08:22:57.469Z,16.60
2018-08-11T08:25:28.664Z,17.00
2018-08-11T08:28:01.771Z,17.10
2018-08-11T08:30:33.933Z,17.30
2018-08-11T08:33:05.166Z,17.60
2018-08-11T08:35:37.125Z,16.90
2018-08-11T08:38:09.418Z,17.00
2018-08-11T08:40:50.193Z,17.30
2018-08-11T08:43:39.896Z,18.20
2018-08-11T08:46:10.190Z,17.60
2018-08-11T08:48:42.840Z,16.90
2018-08-11T08:51:15.083Z,17.60
2018-08-11T08:53:45.871Z,18.60
2018-08-11T08:56:16.602Z,19.60
2018-08-11T08:58:46.314Z,20.60
2018-08-11T09:01:19.391Z,20.50
2018-08-11T09:03:49.835Z,20.40
2018-08-11T09:06:27.563Z,20.50
2018-08-11T09:09:00.305Z,20.50
2018-08-11T16:24:48.686Z,23.30
2018-08-11T16:27:19.048Z,23.50
2018-08-11T16:29:49.001Z,23.70
2018-08-11T16:32:18.666Z,23.00
2018-08-11T16:34:47.869Z,23.30
2018-08-11T16:37:17.523Z,23.30
2018-08-11T16:39:46.997Z,23.90
2018-08-11T16:42:16.110Z,23.60
2018-08-11T16:44:45.393Z,23.40
2018-08-11T16:47:15.220Z,23.80
2018-08-11T16:49:44.026Z,23.40
2018-08-11T16:52:13.213Z,23.80
2018-08-11T16:54:42.524Z,23.60
2018-08-11T16:57:11.429Z,23.50
2018-08-11T16:59:40.499Z,23.70
2018-08-11T17:02:10.258Z,23.80
2018-08-11T17:04:39.508Z,23.70
2018-08-11T17:07:09.858Z,24.00
2018-08-11T17:09:42.972Z,24.20
2018-08-11T17:12:13.633Z,24.30
2018-08-11T17:14:42.960Z,24.30
2018-08-11T17:17:15.454Z,23.70
2018-08-11T17:19:47.700Z,24.20
2018-08-11T17:22:17.472Z,24.20
2018-08-11T17:24:54.085Z,24.30
2018-08-11T17:27:24.984Z,24.60
2018-08-11T17:29:56.078Z,24.60
2018-08-11T17:32:27.602Z,25.10
2018-08-11T17:34:56.825Z,25.10
2018-08-11T17:37:27.710Z,25.20
2018-08-11T17:39:59.263Z,25.20
2018-08-11T17:42:29.363Z,25.20
2018-08-11T17:45:00.111Z,25.50
2018-08-11T17:47:44.273Z,25.30
2018-08-11T17:50:13.847Z,26.00
2018-08-11T17:52:42.968Z,25.60
2018-08-11T17:55:14.005Z,25.40
2018-08-11T17:57:44.558Z,25.70
2018-08-11T18:00:14.118Z,25.60
2018-08-11T18:02:43.751Z,25.50
2018-08-11T18:05:20.549Z,25.70
2018-08-11T18:07:50.958Z,26.30
2018-08-11T18:10:22.607Z,26.90
2018-08-11T18:12:55.627Z,26.30
2018-08-11T18:15:25.924Z,26.60
2018-08-11T18:17:55.433Z,26.20
2018-08-11T18:20:28.290Z,26.40
2018-08-11T18:23:15.554Z,26.60
2018-08-11T18:31:57.652Z,25.40
2018-08-11T18:35:00.867Z,25.50
2018-08-11T18:38:05.981Z,25.80
2018-08-11T18:40:41.133Z,26.00
2018-08-11T18:43:16.646Z,26.60
2018-08-11T18:45:55.916Z,27.10
2018-08-11T18:48:41.340Z,27.10
2018-08-11T18:55:54.258Z,27.40
2018-08-11T18:58:29.903Z,28.10
2018-08-11T19:01:10.167Z,28.10
2018-08-11T19:06:41.180Z,29.10
2018-08-11T19:09:22.373Z,29.30
2018-08-11T19:12:05.690Z,29.90
2018-08-11T19:14:58.479Z,29.60
2018-08-11T19:17:41.298Z,29.60
2018-08-11T19:20:20.401Z,30.00
2018-08-11T19:23:04.202Z,30.70
2018-08-11T19:25:41.558Z,30.70
2018-08-11T19:28:15.736Z,30.50
2018-08-11T19:30:55.509Z,30.90
2018-08-11T19:33:33.448Z,31.00
2018-08-11T19:36:09.257Z,31.30
2018-08-11T19:41:45.324Z,31.10
2018-08-11T19:44:14.595Z,32.70
2018-08-11T19:46:43.591Z,32.40
2018-08-11T19:49:14.170Z,32.70
2018-08-11T19:51:44.134Z,32.50
2018-08-11T19:54:14.116Z,32.80
2018-08-11T19:56:43.551Z,32.90
2018-08-11T19:59:12.545Z,33.00
2018-08-11T20:01:42.582Z,33.00
2018-08-11T20:04:14.898Z,33.30
2018-08-11T20:06:49.711Z,33.90
2018-08-11T20:09:31.148Z,33.20
2018-08-11T20:12:08.813Z,33.60
2018-08-11T20:14:42.713Z,34.10
2018-08-11T20:17:17.686Z,33.70
2018-08-11T20:20:10.561Z,33.10
2018-08-11T20:28:48.910Z,33.40
2018-08-11T20:31:32.645Z,34.00
2018-08-11T20:34:05.377Z,34.10
2018-08-11T20:36:45.204Z,34.90
2018-08-11T20:39:21.282Z,34.80
2018-08-11T20:42:01.080Z,34.70
2018-08-11T20:44:47.940Z,34.90
2018-08-11T20:51:22.896Z,35.70
2018-08-11T20:54:38.587Z,35.90
2018-08-11T20:57:21.403Z,35.90
2018-08-11T20:59:59.544Z,35.80
2018-08-11T21:19:57.652Z,35.50
2018-08-11T21:25:36.578Z,35.50
2018-08-11T21:31:08.748Z,36.30
2018-08-11T21:33:44.095Z,36.40
2018-08-11T21:36:36.854Z,36.20
2018-08-11T21:42:17.006Z,36.80
2018-08-11T21:45:00.866Z,37.10
2018-08-11T21:48:02.725Z,37.00
2018-08-11T21:56:47.310Z,37.20
2018-08-11T21:59:25.580Z,37.30
2018-08-11T22:02:08.597Z,37.40
2018-08-11T22:04:51.881Z,37.20
2018-08-11T22:13:42.838Z,37.60
2018-08-11T22:16:34.913Z,37.60
2018-08-11T22:19:23.216Z,37.50
2018-08-11T22:22:00.426Z,38.30
2018-08-11T22:24:46.652Z,38.50
2018-08-11T22:27:22.911Z,38.60
2018-08-11T22:30:08.365Z,38.60
2018-08-11T22:32:48.285Z,37.90
2018-08-11T22:35:25.504Z,38.00
2018-08-11T22:38:00.333Z,37.70
2018-08-11T22:40:44.128Z,38.10
2018-08-11T22:43:41.383Z,37.90
2018-08-11T22:52:34.201Z,38.10
2018-08-11T22:55:34.148Z,38.80
2018-08-11T23:02:12.968Z,38.80
2018-08-11T23:04:51.582Z,40.10
2018-08-11T23:07:27.405Z,40.20
2018-08-11T23:13:04.115Z,39.90
2018-08-11T23:15:41.825Z,40.00
2018-08-11T23:18:20.642Z,39.90
2018-08-11T23:20:57.837Z,39.80
2018-08-11T23:23:43.056Z,39.50
2018-08-11T23:26:21.528Z,39.20
2018-08-11T23:29:08.225Z,38.30
2018-08-11T23:31:50.360Z,38.50
2018-08-11T23:34:29.224Z,39.20
2018-08-11T23:37:05.503Z,39.30
2018-08-11T23:39:41.114Z,39.80
2018-08-11T23:42:20.283Z,40.30
2018-08-11T23:44:54.304Z,40.00
2018-08-11T23:47:40.965Z,39.80
2018-08-11T23:50:11.648Z,40.50
2018-08-11T23:52:46.277Z,40.50
2018-08-11T23:55:21.242Z,40.60
2018-08-11T23:57:55.526Z,40.00
